createdAt,value
2022-10-18T00:02:05.348Z,99575.00
2022-10-18T00:04:53.038Z,99578.00
2022-10-18T00:07:40.587Z,99588.00
2022-10-18T00:10:28.420Z,99584.00
2022-10-18T00:13:16.145Z,99584.00
2022-10-18T00:16:09.894Z,99582.00
2022-10-18T00:18:57.390Z,99576.00
2022-10-18T00:24:37.261Z,99571.00
2022-10-18T00:27:24.889Z,99579.00
2022-10-18T00:30:12.454Z,99572.00
2022-10-18T00:33:00.059Z,99570.00
2022-10-18T00:35:47.539Z,99553.00
2022-10-18T00:38:35.634Z,99549.00
2022-10-18T00:41:29.144Z,99555.00
2022-10-18T00:44:16.584Z,99549.00
2022-10-18T00:47:09.757Z,99547.00
2022-10-18T00:50:03.489Z,99542.00
2022-10-18T00:52:58.461Z,99542.00
2022-10-18T00:55:46.950Z,99546.00
2022-10-18T00:58:35.494Z,99539.00
2022-10-18T01:01:25.855Z,99534.00
2022-10-18T01:04:19.411Z,99537.00
2022-10-18T01:07:47.979Z,99533.00
2022-10-18T01:11:16.471Z,99525.00
2022-10-18T01:14:28.441Z,99528.00
2022-10-18T01:18:02.185Z,99532.00
2022-10-18T01:21:25.659Z,99524.00
2022-10-18T01:24:37.729Z,99528.00
2022-10-18T01:27:45.929Z,99533.00
2022-10-18T01:30:52.817Z,99537.00
2022-10-18T01:33:53.543Z,99533.00
2022-10-18T01:36:48.344Z,99541.00
2022-10-18T01:39:40.746Z,99535.00
2022-10-18T01:42:28.592Z,99533.00
2022-10-18T01:45:19.305Z,99543.00
2022-10-18T01:48:07.907Z,99537.00
2022-10-18T01:50:55.401Z,99545.00
2022-10-18T01:53:42.879Z,99531.00
2022-10-18T01:57:09.046Z,99540.00
2022-10-18T02:00:05.655Z,99534.00
2022-10-18T02:03:05.742Z,99535.00
2022-10-18T02:06:23.319Z,99543.00
2022-10-18T02:09:21.586Z,99531.00
2022-10-18T02:12:14.499Z,99539.00
2022-10-18T02:15:06.390Z,99536.00
2022-10-18T02:17:56.310Z,99544.00
2022-10-18T02:20:45.742Z,99539.00
2022-10-18T02:23:35.615Z,99536.00
2022-10-18T02:26:23.760Z,99540.00
2022-10-18T02:29:12.305Z,99535.00
2022-10-18T02:32:35.209Z,99534.00
2022-10-18T02:35:41.225Z,99533.00
2022-10-18T02:38:31.615Z,99540.00
2022-10-18T02:41:28.174Z,99545.00
2022-10-18T02:44:15.652Z,99540.00
2022-10-18T02:47:05.326Z,99543.00
2022-10-18T02:49:53.042Z,99544.00
2022-10-18T02:52:41.032Z,99560.00
2022-10-18T02:58:20.834Z,99551.00
2022-10-18T03:01:08.361Z,99551.00
2022-10-18T03:03:55.940Z,99553.00
2022-10-18T03:06:43.517Z,99551.00
2022-10-18T03:09:31.060Z,99552.00
2022-10-18T03:12:18.676Z,99554.00
2022-10-18T03:15:06.840Z,99560.00
2022-10-18T03:17:54.400Z,99555.00
2022-10-18T03:20:41.945Z,99557.00
2022-10-18T03:23:29.460Z,99555.00
2022-10-18T03:26:16.951Z,99556.00
2022-10-18T03:29:05.910Z,99560.00
2022-10-18T03:31:53.417Z,99564.00
2022-10-18T03:34:40.929Z,99557.00
2022-10-18T03:37:28.634Z,99569.00
2022-10-18T03:40:16.270Z,99567.00
2022-10-18T03:43:03.805Z,99573.00
2022-10-18T03:45:51.747Z,99573.00
2022-10-18T03:48:39.500Z,99572.00
2022-10-18T03:51:26.922Z,99573.00
2022-10-18T03:54:14.414Z,99571.00
2022-10-18T03:57:01.980Z,99571.00
2022-10-18T03:59:49.471Z,99574.00
2022-10-18T04:02:36.865Z,99572.00
2022-10-18T04:05:24.566Z,99572.00
2022-10-18T04:08:12.289Z,99574.00
2022-10-18T04:10:59.801Z,99577.00
2022-10-18T04:13:47.270Z,99571.00
2022-10-18T04:19:22.080Z,99557.00
2022-10-18T04:22:12.299Z,99564.00
2022-10-18T04:24:59.764Z,99567.00
2022-10-18T04:27:48.101Z,99557.00
2022-10-18T04:30:35.820Z,99567.00
2022-10-18T04:33:23.569Z,99567.00
2022-10-18T04:36:11.098Z,99573.00
2022-10-18T04:38:58.545Z,99564.00
2022-10-18T04:41:46.006Z,99563.00
2022-10-18T04:44:34.452Z,99570.00
2022-10-18T04:47:21.988Z,99563.00
2022-10-18T04:50:09.735Z,99568.00
2022-10-18T04:52:57.382Z,99574.00
2022-10-18T04:55:49.704Z,99563.00
2022-10-18T04:58:37.149Z,99556.00
2022-10-18T05:01:24.695Z,99554.00
2022-10-18T05:04:12.587Z,99556.00
2022-10-18T05:07:00.071Z,99552.00
2022-10-18T05:09:47.533Z,99541.00
2022-10-18T05:12:35.262Z,99541.00
2022-10-18T05:15:22.800Z,99545.00
2022-10-18T05:18:10.270Z,99549.00
2022-10-18T05:20:58.496Z,99534.00
2022-10-18T05:23:46.445Z,99538.00
2022-10-18T05:26:33.843Z,99542.00
2022-10-18T05:29:21.372Z,99540.00
2022-10-18T05:32:09.189Z,99544.00
2022-10-18T05:34:56.590Z,99543.00
2022-10-18T05:37:44.060Z,99546.00
2022-10-18T05:40:32.292Z,99543.00
2022-10-18T05:43:19.756Z,99555.00
2022-10-18T05:46:13.591Z,99555.00
2022-10-18T05:49:01.306Z,99561.00
2022-10-18T05:51:48.969Z,99562.00
2022-10-18T05:54:36.465Z,99555.00
2022-10-18T05:57:23.880Z,99553.00
2022-10-18T06:00:12.394Z,99563.00
2022-10-18T06:03:00.553Z,99555.00
2022-10-18T06:05:48.414Z,99534.00
2022-10-18T06:08:37.711Z,99535.00
2022-10-18T06:11:26.725Z,99536.00
2022-10-18T06:14:14.099Z,99536.00
2022-10-18T06:17:01.590Z,99535.00
2022-10-18T06:19:49.070Z,99546.00
2022-10-18T06:22:36.515Z,99546.00
2022-10-18T06:25:24.015Z,99551.00
2022-10-18T06:28:12.268Z,99549.00
2022-10-18T06:31:00.043Z,99554.00
2022-10-18T06:33:47.935Z,99556.00
2022-10-18T06:36:35.380Z,99568.00
2022-10-18T06:39:23.236Z,99562.00
2022-10-18T06:42:10.670Z,99562.00
2022-10-18T06:44:58.600Z,99553.00
2022-10-18T06:47:46.130Z,99551.00
2022-10-18T06:50:33.665Z,99557.00
2022-10-18T06:53:21.234Z,99565.00
2022-10-18T06:56:13.919Z,99565.00
2022-10-18T06:59:01.448Z,99573.00
2022-10-18T07:01:48.962Z,99574.00
2022-10-18T07:04:36.511Z,99568.00
2022-10-18T07:07:23.982Z,99572.00
2022-10-18T07:10:13.046Z,99582.00
2022-10-18T07:13:19.937Z,99589.00
2022-10-18T07:16:18.191Z,99590.00
2022-10-18T07:19:06.534Z,99585.00
2022-10-18T07:21:54.034Z,99587.00
2022-10-18T07:24:41.454Z,99587.00
2022-10-18T07:27:29.085Z,99598.00
2022-10-18T07:30:16.935Z,99597.00
2022-10-18T07:33:04.455Z,99593.00
2022-10-18T07:35:51.906Z,99594.00
2022-10-18T07:38:41.442Z,99596.00
2022-10-18T07:41:29.351Z,99593.00
2022-10-18T07:44:17.512Z,99595.00
2022-10-18T07:47:05.385Z,99597.00
2022-10-18T07:49:52.875Z,99594.00
2022-10-18T07:52:40.626Z,99591.00
2022-10-18T07:55:28.085Z,99588.00
2022-10-18T07:58:15.463Z,99603.00
2022-10-18T08:01:05.491Z,99607.00
2022-10-18T08:03:53.934Z,99614.00
2022-10-18T08:06:41.469Z,99606.00
2022-10-18T08:09:28.986Z,99603.00
2022-10-18T08:12:16.486Z,99607.00
2022-10-18T08:15:04.301Z,99614.00
2022-10-18T08:17:52.390Z,99614.00
2022-10-18T08:20:45.313Z,99609.00
2022-10-18T08:23:33.607Z,99613.00
2022-10-18T08:26:23.690Z,99602.00
2022-10-18T08:29:22.460Z,99605.00
2022-10-18T08:32:13.691Z,99611.00
2022-10-18T08:35:02.322Z,99609.00
2022-10-18T08:37:52.001Z,99609.00
2022-10-18T08:40:44.594Z,99600.00
2022-10-18T08:43:47.289Z,99594.00
2022-10-18T08:46:38.971Z,99596.00
2022-10-18T08:49:50.940Z,99594.00
2022-10-18T08:53:14.534Z,99591.00
2022-10-18T08:56:14.977Z,99597.00
2022-10-18T08:59:04.540Z,99587.00
2022-10-18T09:02:17.344Z,99596.00
2022-10-18T09:05:36.258Z,99589.00
2022-10-18T09:09:11.605Z,99597.00
2022-10-18T09:12:07.119Z,99593.00
2022-10-18T09:15:14.604Z,99589.00
2022-10-18T09:18:19.975Z,99587.00
2022-10-18T09:21:39.574Z,99595.00
2022-10-18T09:24:40.420Z,99598.00
2022-10-18T09:27:56.333Z,99582.00
2022-10-18T09:31:12.270Z,99593.00
2022-10-18T09:34:12.379Z,99595.00
2022-10-18T09:37:00.791Z,99599.00
2022-10-18T09:39:52.041Z,99589.00
2022-10-18T09:42:59.388Z,99591.00
2022-10-18T09:45:48.840Z,99596.00
2022-10-18T09:49:16.376Z,99596.00
2022-10-18T09:52:13.752Z,99590.00
2022-10-18T09:55:13.524Z,99597.00
2022-10-18T09:58:06.806Z,99589.00
2022-10-18T10:00:55.664Z,99586.00
2022-10-18T10:03:43.360Z,99593.00
2022-10-18T10:06:34.801Z,99587.00
2022-10-18T10:09:55.569Z,99581.00
2022-10-18T10:12:44.139Z,99575.00
2022-10-18T10:15:37.083Z,99575.00
2022-10-18T10:18:39.314Z,99576.00
2022-10-18T10:21:26.841Z,99578.00
2022-10-18T10:24:51.259Z,99583.00
2022-10-18T10:27:45.099Z,99576.00
2022-10-18T10:30:37.294Z,99577.00
2022-10-18T10:33:38.838Z,99577.00
2022-10-18T10:36:26.320Z,99570.00
2022-10-18T10:39:19.007Z,99569.00
2022-10-18T10:42:14.755Z,99565.00
2022-10-18T10:45:02.774Z,99561.00
2022-10-18T10:47:53.847Z,99543.00
2022-10-18T10:51:11.193Z,99538.00
2022-10-18T10:54:21.922Z,99543.00
2022-10-18T10:57:12.789Z,99531.00
2022-10-18T11:00:00.400Z,99517.00
2022-10-18T11:02:59.248Z,99524.00
2022-10-18T11:05:57.976Z,99529.00
2022-10-18T11:11:50.063Z,99524.00
2022-10-18T11:14:44.625Z,99518.00
2022-10-18T11:18:19.645Z,99527.00
2022-10-18T11:21:31.415Z,99514.00
2022-10-18T11:24:19.290Z,99515.00
2022-10-18T11:27:36.546Z,99519.00
2022-10-18T11:30:50.184Z,99510.00
2022-10-18T11:34:08.672Z,99508.00
2022-10-18T11:37:34.515Z,99497.00
2022-10-18T11:40:29.344Z,99495.00
2022-10-18T11:43:38.956Z,99487.00
2022-10-18T11:46:50.920Z,99492.00
2022-10-18T11:50:03.305Z,99494.00
2022-10-18T11:53:22.576Z,99488.00
2022-10-18T11:56:47.630Z,99476.00
2022-10-18T11:59:55.361Z,99476.00
2022-10-18T12:03:17.125Z,99472.00
2022-10-18T12:06:15.272Z,99472.00
2022-10-18T12:09:19.888Z,99468.00
2022-10-18T12:12:22.265Z,99473.00
2022-10-18T12:15:24.476Z,99465.00
2022-10-18T12:18:18.810Z,99462.00
2022-10-18T12:21:07.324Z,99450.00
2022-10-18T12:24:20.425Z,99458.00
2022-10-18T12:27:15.065Z,99455.00
2022-10-18T12:30:37.381Z,99443.00
2022-10-18T12:33:39.734Z,99440.00
2022-10-18T12:37:07.166Z,99434.00
2022-10-18T12:40:10.672Z,99420.00
2022-10-18T12:43:08.684Z,99416.00
2022-10-18T12:46:00.450Z,99409.00
2022-10-18T12:49:05.505Z,99408.00
2022-10-18T12:52:03.885Z,99413.00
2022-10-18T12:55:13.932Z,99406.00
2022-10-18T12:58:30.649Z,99403.00
2022-10-18T13:01:18.147Z,99404.00
2022-10-18T13:04:28.587Z,99392.00
2022-10-18T13:07:33.018Z,99386.00
2022-10-18T13:10:41.866Z,99389.00
2022-10-18T13:17:23.780Z,99390.00
2022-10-18T13:20:28.238Z,99391.00
2022-10-18T13:23:38.153Z,99388.00
2022-10-18T13:27:18.110Z,99382.00
2022-10-18T13:30:41.560Z,99378.00
2022-10-18T13:33:39.504Z,99362.00
2022-10-18T13:36:32.834Z,99361.00
2022-10-18T13:39:21.226Z,99364.00
2022-10-18T13:42:14.898Z,99368.00
2022-10-18T13:45:33.381Z,99359.00
2022-10-18T13:48:30.019Z,99359.00
2022-10-18T13:52:04.139Z,99362.00
2022-10-18T13:55:35.503Z,99364.00
2022-10-18T13:59:13.209Z,99361.00
2022-10-18T14:02:57.732Z,99366.00
2022-10-18T14:05:52.244Z,99364.00
2022-10-18T14:09:09.501Z,99356.00
2022-10-18T14:12:32.762Z,99355.00
2022-10-18T14:15:39.925Z,99355.00
2022-10-18T14:18:34.425Z,99352.00
2022-10-18T14:21:33.681Z,99354.00
2022-10-18T14:24:25.429Z,99360.00
2022-10-18T14:27:24.144Z,99361.00
2022-10-18T14:30:21.269Z,99359.00
2022-10-18T14:33:45.511Z,99352.00
2022-10-18T14:36:51.889Z,99354.00
2022-10-18T14:39:39.550Z,99355.00
2022-10-18T14:42:29.040Z,99349.00
2022-10-18T14:45:24.203Z,99346.00
2022-10-18T14:48:23.953Z,99345.00
2022-10-18T14:51:14.731Z,99350.00
2022-10-18T14:54:03.318Z,99342.00
2022-10-18T14:56:51.054Z,99347.00
2022-10-18T14:59:51.775Z,99347.00
2022-10-18T15:02:40.105Z,99341.00
2022-10-18T15:05:27.748Z,99346.00
2022-10-18T15:08:15.208Z,99347.00
2022-10-18T15:11:03.293Z,99353.00
2022-10-18T15:14:03.178Z,99352.00
2022-10-18T15:16:55.135Z,99332.00
2022-10-18T15:20:01.935Z,99334.00
2022-10-18T15:22:54.046Z,99339.00
2022-10-18T15:25:41.444Z,99330.00
2022-10-18T15:28:36.288Z,99327.00
2022-10-18T15:31:34.964Z,99334.00
2022-10-18T15:34:26.884Z,99329.00
2022-10-18T15:37:32.219Z,99328.00
2022-10-18T15:40:41.349Z,99326.00
2022-10-18T15:43:28.789Z,99326.00
2022-10-18T15:46:32.959Z,99320.00
2022-10-18T15:49:56.659Z,99319.00
2022-10-18T15:52:44.291Z,99309.00
2022-10-18T15:55:31.749Z,99310.00
2022-10-18T15:58:23.254Z,99317.00
2022-10-18T16:01:38.480Z,99328.00
2022-10-18T16:04:33.704Z,99326.00
2022-10-18T16:07:21.166Z,99326.00
2022-10-18T16:10:15.351Z,99318.00
2022-10-18T16:13:02.822Z,99321.00
2022-10-18T16:15:50.352Z,99326.00
2022-10-18T16:18:37.861Z,99326.00
2022-10-18T16:21:30.175Z,99327.00
2022-10-18T16:24:18.254Z,99336.00
2022-10-18T16:27:06.175Z,99335.00
2022-10-18T16:29:53.619Z,99341.00
2022-10-18T16:32:41.119Z,99347.00
2022-10-18T16:35:28.909Z,99345.00
2022-10-18T16:38:35.533Z,99350.00
2022-10-18T16:41:23.819Z,99356.00
2022-10-18T16:44:11.416Z,99355.00
2022-10-18T16:46:58.869Z,99353.00
2022-10-18T16:49:46.936Z,99361.00
2022-10-18T16:52:34.974Z,99369.00
2022-10-18T16:55:25.034Z,99369.00
2022-10-18T16:58:18.168Z,99374.00
2022-10-18T17:01:08.179Z,99374.00
2022-10-18T17:03:56.684Z,99372.00
2022-10-18T17:06:44.334Z,99372.00
2022-10-18T17:09:31.800Z,99376.00
2022-10-18T17:12:19.254Z,99371.00
2022-10-18T17:15:08.796Z,99376.00
2022-10-18T17:17:56.173Z,99367.00
2022-10-18T17:20:45.044Z,99368.00
2022-10-18T17:23:32.539Z,99375.00
2022-10-18T17:26:28.803Z,99372.00
2022-10-18T17:29:17.934Z,99370.00
2022-10-18T17:32:05.536Z,99378.00
2022-10-18T17:34:53.027Z,99378.00
2022-10-18T17:37:44.034Z,99376.00
2022-10-18T17:40:34.445Z,99376.00
2022-10-18T17:43:21.872Z,99375.00
2022-10-18T17:46:13.283Z,99370.00
2022-10-18T17:49:00.788Z,99379.00
2022-10-18T17:51:48.300Z,99380.00
2022-10-18T17:54:35.779Z,99376.00
2022-10-18T17:57:23.190Z,99376.00
2022-10-18T18:00:13.309Z,99374.00
2022-10-18T18:03:01.260Z,99366.00
2022-10-18T18:05:48.959Z,99365.00
2022-10-18T18:08:36.365Z,99376.00
2022-10-18T18:11:25.605Z,99381.00
2022-10-18T18:14:13.167Z,99379.00
2022-10-18T18:17:01.612Z,99371.00
2022-10-18T18:19:49.205Z,99373.00
2022-10-18T18:22:40.377Z,99374.00
2022-10-18T18:25:29.992Z,99375.00
2022-10-18T18:28:17.443Z,99385.00
2022-10-18T18:31:16.980Z,99382.00
2022-10-18T18:34:04.440Z,99391.00
2022-10-18T18:36:52.035Z,99378.00
2022-10-18T18:39:39.556Z,99391.00
2022-10-18T18:42:27.105Z,99390.00
2022-10-18T18:45:14.599Z,99397.00
2022-10-18T18:48:01.987Z,99401.00
2022-10-18T18:50:51.297Z,99403.00
2022-10-18T18:53:41.665Z,99395.00
2022-10-18T18:56:29.530Z,99394.00
2022-10-18T18:59:20.160Z,99395.00
2022-10-18T19:02:09.180Z,99404.00
2022-10-18T19:04:56.589Z,99400.00
2022-10-18T19:07:44.021Z,99398.00
2022-10-18T19:10:31.768Z,99399.00
2022-10-18T19:13:20.761Z,99393.00
2022-10-18T19:16:25.549Z,99381.00
2022-10-18T19:19:19.719Z,99381.00
2022-10-18T19:22:10.222Z,99377.00
2022-10-18T19:24:57.676Z,99374.00
2022-10-18T19:27:45.145Z,99384.00
2022-10-18T19:30:32.575Z,99386.00
2022-10-18T19:33:35.572Z,99387.00
2022-10-18T19:36:30.735Z,99382.00
2022-10-18T19:39:32.105Z,99389.00
2022-10-18T19:42:31.526Z,99381.00
2022-10-18T19:45:19.249Z,99382.00
2022-10-18T19:48:07.176Z,99384.00
2022-10-18T19:50:54.662Z,99379.00
2022-10-18T19:53:42.530Z,99378.00
2022-10-18T19:56:30.934Z,99378.00
2022-10-18T19:59:19.163Z,99381.00
2022-10-18T20:02:06.934Z,99385.00
2022-10-18T20:04:54.450Z,99382.00
2022-10-18T20:07:43.145Z,99380.00
2022-10-18T20:10:30.541Z,99387.00
2022-10-18T20:13:18.386Z,99386.00
2022-10-18T20:16:09.046Z,99386.00
2022-10-18T20:19:01.910Z,99384.00
2022-10-18T20:21:49.361Z,99391.00
2022-10-18T20:24:36.791Z,99394.00
2022-10-18T20:27:24.635Z,99404.00
2022-10-18T20:30:12.324Z,99404.00
2022-10-18T20:33:00.124Z,99401.00
2022-10-18T20:35:51.432Z,99407.00
2022-10-18T20:38:42.405Z,99409.00
2022-10-18T20:41:41.147Z,99408.00
2022-10-18T20:44:31.883Z,99415.00
2022-10-18T20:47:19.320Z,99418.00
2022-10-18T20:50:07.660Z,99412.00
2022-10-18T20:52:55.154Z,99418.00
2022-10-18T20:55:43.671Z,99414.00
2022-10-18T20:58:31.600Z,99420.00
2022-10-18T21:01:27.591Z,99411.00
2022-10-18T21:04:15.175Z,99414.00
2022-10-18T21:07:02.580Z,99417.00
2022-10-18T21:09:50.094Z,99414.00
2022-10-18T21:12:37.940Z,99424.00
2022-10-18T21:15:25.671Z,99427.00
2022-10-18T21:18:13.130Z,99433.00
2022-10-18T21:21:10.375Z,99434.00
2022-10-18T21:23:57.880Z,99434.00
2022-10-18T21:26:47.809Z,99432.00
2022-10-18T21:29:35.300Z,99440.00
2022-10-18T21:32:22.730Z,99450.00
2022-10-18T21:35:11.165Z,99446.00
2022-10-18T21:37:58.579Z,99451.00
2022-10-18T21:40:46.062Z,99451.00
2022-10-18T21:43:33.512Z,99458.00
2022-10-18T21:46:26.305Z,99455.00
2022-10-18T21:49:15.014Z,99455.00
2022-10-18T21:52:06.540Z,99453.00
2022-10-18T21:54:54.063Z,99455.00
2022-10-18T21:57:41.527Z,99452.00
2022-10-18T22:00:28.920Z,99453.00
2022-10-18T22:03:16.375Z,99452.00
2022-10-18T22:06:09.530Z,99452.00
2022-10-18T22:09:04.280Z,99456.00
2022-10-18T22:11:53.895Z,99457.00
2022-10-18T22:14:41.385Z,99462.00
2022-10-18T22:17:28.844Z,99460.00
2022-10-18T22:20:16.585Z,99454.00
2022-10-18T22:23:03.994Z,99462.00
2022-10-18T22:25:51.464Z,99454.00
2022-10-18T22:28:40.990Z,99450.00
2022-10-18T22:31:34.189Z,99454.00
2022-10-18T22:34:29.067Z,99460.00
2022-10-18T22:37:16.595Z,99455.00
2022-10-18T22:40:04.754Z,99451.00
2022-10-18T22:42:52.826Z,99454.00
2022-10-18T22:45:40.647Z,99450.00
2022-10-18T22:48:28.299Z,99451.00
2022-10-18T22:51:16.089Z,99451.00
2022-10-18T22:54:04.261Z,99461.00
2022-10-18T22:56:51.771Z,99456.00
2022-10-18T22:59:39.186Z,99461.00
2022-10-18T23:02:26.609Z,99458.00
2022-10-18T23:05:14.146Z,99450.00
2022-10-18T23:08:01.552Z,99446.00
2022-10-18T23:10:55.799Z,99436.00
2022-10-18T23:13:43.245Z,99438.00
2022-10-18T23:16:31.783Z,99442.00
2022-10-18T23:19:19.280Z,99443.00
2022-10-18T23:22:06.785Z,99440.00
2022-10-18T23:24:54.236Z,99443.00
2022-10-18T23:30:29.716Z,99446.00
2022-10-18T23:33:17.275Z,99447.00
2022-10-18T23:36:07.784Z,99447.00
2022-10-18T23:38:55.969Z,99454.00
2022-10-18T23:41:44.200Z,99443.00
2022-10-18T23:44:31.615Z,99434.00
2022-10-18T23:47:19.485Z,99440.00
2022-10-18T23:50:08.203Z,99447.00
2022-10-18T23:52:55.665Z,99447.00
2022-10-18T23:56:01.215Z,99446.00
2022-10-18T23:58:48.634Z,99446.00
